sensor_id;sensor_type;location;lat;lon;timestamp;temperature;humidity
70867;HTU21D;58487;53.474;49.470;2023-08-31T00:01:11;16.03;62.92
70867;HTU21D;58487;53.474;49.470;2023-08-31T00:03:37;16.02;66.79
70867;HTU21D;58487;53.474;49.470;2023-08-31T00:06:04;15.99;66.15
70867;HTU21D;58487;53.474;49.470;2023-08-31T00:08:34;15.98;65.59
70867;HTU21D;58487;53.474;49.470;2023-08-31T00:11:00;15.87;61.99
70867;HTU21D;58487;53.474;49.470;2023-08-31T00:13:27;15.86;61.13
70867;HTU21D;58487;53.474;49.470;2023-08-31T00:15:57;15.87;60.89
70867;HTU21D;58487;53.474;49.470;2023-08-31T00:18:28;15.76;60.60
70867;HTU21D;58487;53.474;49.470;2023-08-31T00:20:54;15.74;62.63
70867;HTU21D;58487;53.474;49.470;2023-08-31T00:23:20;15.62;60.95
70867;HTU21D;58487;53.474;49.470;2023-08-31T00:25:47;15.59;62.53
70867;HTU21D;58487;53.474;49.470;2023-08-31T00:28:16;15.54;61.67
70867;HTU21D;58487;53.474;49.470;2023-08-31T00:30:44;15.49;63.52
70867;HTU21D;58487;53.474;49.470;2023-08-31T00:33:11;15.39;62.74
70867;HTU21D;58487;53.474;49.470;2023-08-31T00:35:38;15.33;61.92
70867;HTU21D;58487;53.474;49.470;2023-08-31T00:38:09;15.29;62.76
70867;HTU21D;58487;53.474;49.470;2023-08-31T00:40:39;15.21;70.34
70867;HTU21D;58487;53.474;49.470;2023-08-31T00:43:07;15.23;62.82
70867;HTU21D;58487;53.474;49.470;2023-08-31T00:45:33;15.17;63.95
70867;HTU21D;58487;53.474;49.470;2023-08-31T00:48:00;15.11;63.33
70867;HTU21D;58487;53.474;49.470;2023-08-31T00:50:28;15.08;63.27
70867;HTU21D;58487;53.474;49.470;2023-08-31T00:52:55;15.04;62.97
70867;HTU21D;58487;53.474;49.470;2023-08-31T00:55:21;14.94;63.43
70867;HTU21D;58487;53.474;49.470;2023-08-31T00:57:47;14.89;63.50
70867;HTU21D;58487;53.474;49.470;2023-08-31T01:00:14;14.87;65.10
70867;HTU21D;58487;53.474;49.470;2023-08-31T01:02:47;14.84;64.54
70867;HTU21D;58487;53.474;49.470;2023-08-31T01:05:30;14.86;63.31
70867;HTU21D;58487;53.474;49.470;2023-08-31T01:08:22;14.91;63.80
70867;HTU21D;58487;53.474;49.470;2023-08-31T01:11:15;14.98;65.26
70867;HTU21D;58487;53.474;49.470;2023-08-31T01:13:51;14.95;62.53
70867;HTU21D;58487;53.474;49.470;2023-08-31T01:16:18;14.92;63.23
70867;HTU21D;58487;53.474;49.470;2023-08-31T01:18:46;14.91;62.60
70867;HTU21D;58487;53.474;49.470;2023-08-31T01:21:22;14.86;62.79
70867;HTU21D;58487;53.474;49.470;2023-08-31T01:23:55;14.83;62.84
70867;HTU21D;58487;53.474;49.470;2023-08-31T01:26:22;14.86;63.84
70867;HTU21D;58487;53.474;49.470;2023-08-31T01:28:49;14.83;62.50
70867;HTU21D;58487;53.474;49.470;2023-08-31T01:31:16;14.78;63.07
70867;HTU21D;58487;53.474;49.470;2023-08-31T01:33:43;14.75;63.40
70867;HTU21D;58487;53.474;49.470;2023-08-31T01:36:26;14.69;64.76
70867;HTU21D;58487;53.474;49.470;2023-08-31T01:39:15;14.67;64.14
70867;HTU21D;58487;53.474;49.470;2023-08-31T01:41:48;14.68;63.29
70867;HTU21D;58487;53.474;49.470;2023-08-31T01:44:18;14.68;63.11
70867;HTU21D;58487;53.474;49.470;2023-08-31T01:46:46;14.68;63.12
70867;HTU21D;58487;53.474;49.470;2023-08-31T01:49:12;14.69;63.33
70867;HTU21D;58487;53.474;49.470;2023-08-31T01:51:40;14.66;64.09
70867;HTU21D;58487;53.474;49.470;2023-08-31T01:54:06;14.66;67.49
70867;HTU21D;58487;53.474;49.470;2023-08-31T01:56:33;14.63;64.20
70867;HTU21D;58487;53.474;49.470;2023-08-31T01:58:59;14.65;63.79
70867;HTU21D;58487;53.474;49.470;2023-08-31T02:01:25;14.65;64.53
70867;HTU21D;58487;53.474;49.470;2023-08-31T02:03:51;14.70;65.22
70867;HTU21D;58487;53.474;49.470;2023-08-31T02:06:18;14.74;64.41
70867;HTU21D;58487;53.474;49.470;2023-08-31T02:08:44;14.75;65.28
70867;HTU21D;58487;53.474;49.470;2023-08-31T02:11:13;14.77;65.93
70867;HTU21D;58487;53.474;49.470;2023-08-31T02:13:40;14.74;64.22
70867;HTU21D;58487;53.474;49.470;2023-08-31T02:16:06;14.80;64.41
70867;HTU21D;58487;53.474;49.470;2023-08-31T02:18:32;14.78;65.53
70867;HTU21D;58487;53.474;49.470;2023-08-31T02:20:59;14.81;65.23
70867;HTU21D;58487;53.474;49.470;2023-08-31T02:23:25;14.88;64.82
70867;HTU21D;58487;53.474;49.470;2023-08-31T02:25:51;14.94;65.07
70867;HTU21D;58487;53.474;49.470;2023-08-31T02:28:17;14.95;64.05
70867;HTU21D;58487;53.474;49.470;2023-08-31T02:30:46;14.94;64.19
70867;HTU21D;58487;53.474;49.470;2023-08-31T02:33:12;14.93;63.91
70867;HTU21D;58487;53.474;49.470;2023-08-31T02:35:38;14.95;64.39
70867;HTU21D;58487;53.474;49.470;2023-08-31T02:38:03;14.94;65.78
70867;HTU21D;58487;53.474;49.470;2023-08-31T02:40:29;14.92;64.79
70867;HTU21D;58487;53.474;49.470;2023-08-31T02:42:55;14.94;64.66
70867;HTU21D;58487;53.474;49.470;2023-08-31T02:45:21;14.94;65.34
70867;HTU21D;58487;53.474;49.470;2023-08-31T02:47:47;14.97;64.78
70867;HTU21D;58487;53.474;49.470;2023-08-31T02:50:15;14.91;64.74
70867;HTU21D;58487;53.474;49.470;2023-08-31T02:52:41;14.87;65.40
70867;HTU21D;58487;53.474;49.470;2023-08-31T02:55:07;14.89;64.66
70867;HTU21D;58487;53.474;49.470;2023-08-31T02:57:33;14.91;65.63
70867;HTU21D;58487;53.474;49.470;2023-08-31T02:59:59;14.93;64.52
70867;HTU21D;58487;53.474;49.470;2023-08-31T03:02:25;15.01;64.11
70867;HTU21D;58487;53.474;49.470;2023-08-31T03:04:51;15.09;64.33
70867;HTU21D;58487;53.474;49.470;2023-08-31T03:07:17;15.14;63.73
70867;HTU21D;58487;53.474;49.470;2023-08-31T03:09:48;15.15;64.22
70867;HTU21D;58487;53.474;49.470;2023-08-31T03:12:15;15.13;63.67
70867;HTU21D;58487;53.474;49.470;2023-08-31T03:14:41;15.24;64.72
70867;HTU21D;58487;53.474;49.470;2023-08-31T03:17:07;15.40;62.79
70867;HTU21D;58487;53.474;49.470;2023-08-31T03:19:33;15.37;63.19
70867;HTU21D;58487;53.474;49.470;2023-08-31T03:21:59;15.44;63.02
70867;HTU21D;58487;53.474;49.470;2023-08-31T03:24:25;15.48;62.38
70867;HTU21D;58487;53.474;49.470;2023-08-31T03:26:51;15.54;62.13
70867;HTU21D;58487;53.474;49.470;2023-08-31T03:29:17;15.47;62.67
70867;HTU21D;58487;53.474;49.470;2023-08-31T03:31:43;15.46;62.37
70867;HTU21D;58487;53.474;49.470;2023-08-31T03:34:09;15.53;62.31
70867;HTU21D;58487;53.474;49.470;2023-08-31T03:36:35;15.52;62.64
70867;HTU21D;58487;53.474;49.470;2023-08-31T03:39:02;15.67;62.36
70867;HTU21D;58487;53.474;49.470;2023-08-31T03:41:28;15.72;62.04
70867;HTU21D;58487;53.474;49.470;2023-08-31T03:43:54;15.75;61.70
70867;HTU21D;58487;53.474;49.470;2023-08-31T03:46:19;15.77;61.63
70867;HTU21D;58487;53.474;49.470;2023-08-31T03:48:45;15.74;61.92
70867;HTU21D;58487;53.474;49.470;2023-08-31T03:51:11;15.81;61.89
70867;HTU21D;58487;53.474;49.470;2023-08-31T03:53:37;15.80;61.19
70867;HTU21D;58487;53.474;49.470;2023-08-31T03:56:03;15.90;61.42
70867;HTU21D;58487;53.474;49.470;2023-08-31T03:58:30;15.97;62.11
70867;HTU21D;58487;53.474;49.470;2023-08-31T04:00:56;16.02;60.66
70867;HTU21D;58487;53.474;49.470;2023-08-31T04:03:22;16.01;60.02
70867;HTU21D;58487;53.474;49.470;2023-08-31T04:05:54;16.02;60.15
70867;HTU21D;58487;53.474;49.470;2023-08-31T04:08:20;15.96;59.86
70867;HTU21D;58487;53.474;49.470;2023-08-31T04:10:46;16.00;60.11
70867;HTU21D;58487;53.474;49.470;2023-08-31T04:13:12;16.08;61.96
70867;HTU21D;58487;53.474;49.470;2023-08-31T04:15:38;16.02;59.35
70867;HTU21D;58487;53.474;49.470;2023-08-31T04:18:05;16.05;59.33
70867;HTU21D;58487;53.474;49.470;2023-08-31T04:20:33;16.01;59.25
70867;HTU21D;58487;53.474;49.470;2023-08-31T04:22:59;16.16;59.09
70867;HTU21D;58487;53.474;49.470;2023-08-31T04:25:28;16.18;58.46
70867;HTU21D;58487;53.474;49.470;2023-08-31T04:27:57;16.16;58.81
70867;HTU21D;58487;53.474;49.470;2023-08-31T04:30:23;16.22;59.31
70867;HTU21D;58487;53.474;49.470;2023-08-31T04:32:49;16.07;57.67
70867;HTU21D;58487;53.474;49.470;2023-08-31T04:35:19;16.04;59.15
70867;HTU21D;58487;53.474;49.470;2023-08-31T04:37:46;16.11;59.53
70867;HTU21D;58487;53.474;49.470;2023-08-31T04:40:12;16.16;58.79
70867;HTU21D;58487;53.474;49.470;2023-08-31T04:42:39;16.33;57.44
70867;HTU21D;58487;53.474;49.470;2023-08-31T04:45:06;16.31;57.89
70867;HTU21D;58487;53.474;49.470;2023-08-31T04:47:33;16.44;57.62
70867;HTU21D;58487;53.474;49.470;2023-08-31T04:49:59;16.45;58.24
70867;HTU21D;58487;53.474;49.470;2023-08-31T04:52:25;16.58;57.98
70867;HTU21D;58487;53.474;49.470;2023-08-31T04:54:51;16.62;57.55
70867;HTU21D;58487;53.474;49.470;2023-08-31T04:57:17;16.47;57.52
70867;HTU21D;58487;53.474;49.470;2023-08-31T04:59:43;16.54;57.35
70867;HTU21D;58487;53.474;49.470;2023-08-31T05:02:10;16.65;56.54
70867;HTU21D;58487;53.474;49.470;2023-08-31T05:04:36;16.75;56.28
70867;HTU21D;58487;53.474;49.470;2023-08-31T05:07:04;16.69;56.59
70867;HTU21D;58487;53.474;49.470;2023-08-31T05:09:31;16.71;56.19
70867;HTU21D;58487;53.474;49.470;2023-08-31T05:12:01;16.80;54.74
70867;HTU21D;58487;53.474;49.470;2023-08-31T05:14:29;16.85;56.39
70867;HTU21D;58487;53.474;49.470;2023-08-31T05:16:55;16.81;54.91
70867;HTU21D;58487;53.474;49.470;2023-08-31T05:19:22;16.96;54.52
70867;HTU21D;58487;53.474;49.470;2023-08-31T05:21:48;17.07;54.94
70867;HTU21D;58487;53.474;49.470;2023-08-31T05:24:14;17.07;54.07
70867;HTU21D;58487;53.474;49.470;2023-08-31T05:26:41;17.14;54.34
70867;HTU21D;58487;53.474;49.470;2023-08-31T05:29:07;17.32;53.39
70867;HTU21D;58487;53.474;49.470;2023-08-31T05:31:33;17.25;54.00
70867;HTU21D;58487;53.474;49.470;2023-08-31T05:33:59;17.26;53.24
70867;HTU21D;58487;53.474;49.470;2023-08-31T05:36:27;17.43;52.91
70867;HTU21D;58487;53.474;49.470;2023-08-31T05:38:53;17.48;52.40
70867;HTU21D;58487;53.474;49.470;2023-08-31T05:41:19;17.53;52.60
70867;HTU21D;58487;53.474;49.470;2023-08-31T05:43:46;17.50;52.09
70867;HTU21D;58487;53.474;49.470;2023-08-31T05:46:13;17.52;52.38
70867;HTU21D;58487;53.474;49.470;2023-08-31T05:48:43;17.59;52.42
70867;HTU21D;58487;53.474;49.470;2023-08-31T05:51:10;17.62;52.11
70867;HTU21D;58487;53.474;49.470;2023-08-31T05:53:36;17.70;51.94
70867;HTU21D;58487;53.474;49.470;2023-08-31T05:56:03;17.84;51.45
70867;HTU21D;58487;53.474;49.470;2023-08-31T05:58:34;17.84;50.90
70867;HTU21D;58487;53.474;49.470;2023-08-31T06:01:01;17.87;51.50
70867;HTU21D;58487;53.474;49.470;2023-08-31T06:03:28;17.90;51.79
70867;HTU21D;58487;53.474;49.470;2023-08-31T06:05:58;17.93;51.32
70867;HTU21D;58487;53.474;49.470;2023-08-31T06:08:24;17.78;52.72
70867;HTU21D;58487;53.474;49.470;2023-08-31T06:10:51;17.76;51.87
70867;HTU21D;58487;53.474;49.470;2023-08-31T06:13:17;18.02;51.34
70867;HTU21D;58487;53.474;49.470;2023-08-31T06:15:43;18.13;52.66
70867;HTU21D;58487;53.474;49.470;2023-08-31T06:18:12;18.08;49.87
70867;HTU21D;58487;53.474;49.470;2023-08-31T06:20:38;18.10;48.44
70867;HTU21D;58487;53.474;49.470;2023-08-31T06:23:04;18.22;48.62
70867;HTU21D;58487;53.474;49.470;2023-08-31T06:25:32;18.26;47.15
70867;HTU21D;58487;53.474;49.470;2023-08-31T06:28:11;18.24;47.16
70867;HTU21D;58487;53.474;49.470;2023-08-31T06:30:42;18.34;45.01
70867;HTU21D;58487;53.474;49.470;2023-08-31T06:33:16;18.40;44.31
70867;HTU21D;58487;53.474;49.470;2023-08-31T06:35:45;18.39;43.35
70867;HTU21D;58487;53.474;49.470;2023-08-31T06:38:14;18.41;43.18
70867;HTU21D;58487;53.474;49.470;2023-08-31T06:40:42;18.54;43.68
70867;HTU21D;58487;53.474;49.470;2023-08-31T06:43:09;18.55;43.67
70867;HTU21D;58487;53.474;49.470;2023-08-31T06:45:35;18.56;42.05
70867;HTU21D;58487;53.474;49.470;2023-08-31T06:48:01;18.48;41.55
70867;HTU21D;58487;53.474;49.470;2023-08-31T06:50:28;18.43;41.11
70867;HTU21D;58487;53.474;49.470;2023-08-31T06:52:54;18.39;44.31
70867;HTU21D;58487;53.474;49.470;2023-08-31T06:55:20;18.35;41.40
70867;HTU21D;58487;53.474;49.470;2023-08-31T06:57:46;18.44;43.03
70867;HTU21D;58487;53.474;49.470;2023-08-31T07:00:12;18.48;44.59
70867;HTU21D;58487;53.474;49.470;2023-08-31T07:02:42;18.70;44.12
70867;HTU21D;58487;53.474;49.470;2023-08-31T07:05:10;18.65;42.42
70867;HTU21D;58487;53.474;49.470;2023-08-31T07:07:36;18.73;42.96
70867;HTU21D;58487;53.474;49.470;2023-08-31T07:10:03;18.74;41.68
70867;HTU21D;58487;53.474;49.470;2023-08-31T07:12:31;18.78;43.64
70867;HTU21D;58487;53.474;49.470;2023-08-31T07:14:57;18.79;51.09
70867;HTU21D;58487;53.474;49.470;2023-08-31T07:17:23;18.93;49.92
70867;HTU21D;58487;53.474;49.470;2023-08-31T07:19:49;19.02;48.22
70867;HTU21D;58487;53.474;49.470;2023-08-31T07:22:15;19.03;45.92
70867;HTU21D;58487;53.474;49.470;2023-08-31T07:24:41;19.13;45.66
70867;HTU21D;58487;53.474;49.470;2023-08-31T07:27:07;18.92;47.78
70867;HTU21D;58487;53.474;49.470;2023-08-31T07:29:33;18.66;45.13
70867;HTU21D;58487;53.474;49.470;2023-08-31T07:31:59;18.89;43.62
70867;HTU21D;58487;53.474;49.470;2023-08-31T07:34:25;19.00;44.44
70867;HTU21D;58487;53.474;49.470;2023-08-31T07:36:52;19.13;44.36
70867;HTU21D;58487;53.474;49.470;2023-08-31T07:39:18;19.09;46.38
70867;HTU21D;58487;53.474;49.470;2023-08-31T07:41:44;19.23;42.16
70867;HTU21D;58487;53.474;49.470;2023-08-31T07:44:10;19.39;41.78
70867;HTU21D;58487;53.474;49.470;2023-08-31T07:46:36;19.28;41.67
70867;HTU21D;58487;53.474;49.470;2023-08-31T07:49:02;19.25;43.06
70867;HTU21D;58487;53.474;49.470;2023-08-31T07:51:29;19.32;41.06
70867;HTU21D;58487;53.474;49.470;2023-08-31T07:53:56;19.44;44.93
70867;HTU21D;58487;53.474;49.470;2023-08-31T07:56:25;19.33;45.86
70867;HTU21D;58487;53.474;49.470;2023-08-31T07:58:51;19.27;47.37
70867;HTU21D;58487;53.474;49.470;2023-08-31T08:01:17;19.46;44.83
70867;HTU21D;58487;53.474;49.470;2023-08-31T08:03:43;19.52;42.29
70867;HTU21D;58487;53.474;49.470;2023-08-31T08:06:09;19.73;41.77
70867;HTU21D;58487;53.474;49.470;2023-08-31T08:08:35;19.80;41.28
70867;HTU21D;58487;53.474;49.470;2023-08-31T08:11:03;19.40;40.10
70867;HTU21D;58487;53.474;49.470;2023-08-31T08:13:30;19.45;40.84
70867;HTU21D;58487;53.474;49.470;2023-08-31T08:15:56;19.59;40.39
70867;HTU21D;58487;53.474;49.470;2023-08-31T08:18:22;19.51;41.64
70867;HTU21D;58487;53.474;49.470;2023-08-31T08:20:50;19.62;42.73
70867;HTU21D;58487;53.474;49.470;2023-08-31T08:23:16;19.54;40.26
70867;HTU21D;58487;53.474;49.470;2023-08-31T08:25:43;19.59;38.96
70867;HTU21D;58487;53.474;49.470;2023-08-31T08:28:09;19.63;41.25
70867;HTU21D;58487;53.474;49.470;2023-08-31T08:30:35;19.70;44.51
70867;HTU21D;58487;53.474;49.470;2023-08-31T08:33:01;19.92;40.50
70867;HTU21D;58487;53.474;49.470;2023-08-31T08:35:28;19.87;40.96
70867;HTU21D;58487;53.474;49.470;2023-08-31T08:37:54;20.02;38.93
70867;HTU21D;58487;53.474;49.470;2023-08-31T08:40:20;20.10;38.49
70867;HTU21D;58487;53.474;49.470;2023-08-31T08:42:53;20.17;37.11
70867;HTU21D;58487;53.474;49.470;2023-08-31T08:45:20;20.04;38.61
70867;HTU21D;58487;53.474;49.470;2023-08-31T08:47:49;20.03;39.78
70867;HTU21D;58487;53.474;49.470;2023-08-31T08:50:20;19.92;38.21
70867;HTU21D;58487;53.474;49.470;2023-08-31T08:52:47;20.04;36.71
70867;HTU21D;58487;53.474;49.470;2023-08-31T08:55:13;20.09;38.43
70867;HTU21D;58487;53.474;49.470;2023-08-31T08:57:41;20.30;38.66
70867;HTU21D;58487;53.474;49.470;2023-08-31T09:00:07;20.49;37.26
70867;HTU21D;58487;53.474;49.470;2023-08-31T09:02:34;20.70;36.88
70867;HTU21D;58487;53.474;49.470;2023-08-31T09:05:00;20.51;36.82
70867;HTU21D;58487;53.474;49.470;2023-08-31T09:07:29;20.43;38.50
70867;HTU21D;58487;53.474;49.470;2023-08-31T09:09:55;20.30;36.45
70867;HTU21D;58487;53.474;49.470;2023-08-31T09:12:23;20.37;36.46
70867;HTU21D;58487;53.474;49.470;2023-08-31T09:15:00;20.54;40.44
70867;HTU21D;58487;53.474;49.470;2023-08-31T09:17:37;20.55;36.96
70867;HTU21D;58487;53.474;49.470;2023-08-31T09:20:04;20.77;36.92
70867;HTU21D;58487;53.474;49.470;2023-08-31T09:22:31;21.19;44.33
70867;HTU21D;58487;53.474;49.470;2023-08-31T09:24:57;21.44;40.65
70867;HTU21D;58487;53.474;49.470;2023-08-31T09:27:23;21.04;40.17
70867;HTU21D;58487;53.474;49.470;2023-08-31T09:29:54;21.02;39.37
70867;HTU21D;58487;53.474;49.470;2023-08-31T09:32:21;20.98;44.58
70867;HTU21D;58487;53.474;49.470;2023-08-31T09:34:48;21.21;46.70
70867;HTU21D;58487;53.474;49.470;2023-08-31T09:37:18;21.33;40.59
70867;HTU21D;58487;53.474;49.470;2023-08-31T09:39:44;21.63;43.36
70867;HTU21D;58487;53.474;49.470;2023-08-31T09:42:10;21.98;54.29
70867;HTU21D;58487;53.474;49.470;2023-08-31T09:44:40;21.99;46.22
70867;HTU21D;58487;53.474;49.470;2023-08-31T09:47:08;21.98;39.14
70867;HTU21D;58487;53.474;49.470;2023-08-31T09:49:35;22.10;41.81
70867;HTU21D;58487;53.474;49.470;2023-08-31T09:52:03;22.41;45.22
70867;HTU21D;58487;53.474;49.470;2023-08-31T09:54:32;22.82;37.21
70867;HTU21D;58487;53.474;49.470;2023-08-31T09:57:01;23.14;48.18
70867;HTU21D;58487;53.474;49.470;2023-08-31T09:59:28;23.16;44.16
70867;HTU21D;58487;53.474;49.470;2023-08-31T10:01:55;23.12;48.06
70867;HTU21D;58487;53.474;49.470;2023-08-31T10:04:27;22.62;52.36
70867;HTU21D;58487;53.474;49.470;2023-08-31T10:06:55;22.80;50.56
70867;HTU21D;58487;53.474;49.470;2023-08-31T10:09:22;22.94;49.98
70867;HTU21D;58487;53.474;49.470;2023-08-31T10:11:49;22.90;43.51
70867;HTU21D;58487;53.474;49.470;2023-08-31T10:14:16;22.99;50.78
70867;HTU21D;58487;53.474;49.470;2023-08-31T10:16:44;23.52;42.27
70867;HTU21D;58487;53.474;49.470;2023-08-31T10:19:11;23.53;40.86
70867;HTU21D;58487;53.474;49.470;2023-08-31T10:21:40;23.24;40.56
70867;HTU21D;58487;53.474;49.470;2023-08-31T10:24:06;23.46;42.48
70867;HTU21D;58487;53.474;49.470;2023-08-31T10:26:32;24.14;42.88
70867;HTU21D;58487;53.474;49.470;2023-08-31T10:28:59;24.08;38.73
70867;HTU21D;58487;53.474;49.470;2023-08-31T10:31:30;23.51;39.46
70867;HTU21D;58487;53.474;49.470;2023-08-31T10:36:45;23.72;46.64
70867;HTU21D;58487;53.474;49.470;2023-08-31T10:39:16;23.57;38.00
70867;HTU21D;58487;53.474;49.470;2023-08-31T10:41:52;23.86;36.56
70867;HTU21D;58487;53.474;49.470;2023-08-31T10:44:26;23.61;38.77
70867;HTU21D;58487;53.474;49.470;2023-08-31T10:46:53;23.73;44.61
70867;HTU21D;58487;53.474;49.470;2023-08-31T10:49:21;23.79;37.73
70867;HTU21D;58487;53.474;49.470;2023-08-31T10:51:54;23.82;49.25
70867;HTU21D;58487;53.474;49.470;2023-08-31T10:54:22;23.52;47.89
70867;HTU21D;58487;53.474;49.470;2023-08-31T10:59:51;24.06;44.66
70867;HTU21D;58487;53.474;49.470;2023-08-31T11:02:44;23.94;47.28
70867;HTU21D;58487;53.474;49.470;2023-08-31T11:05:14;23.73;45.03
70867;HTU21D;58487;53.474;49.470;2023-08-31T11:07:50;24.32;51.08
70867;HTU21D;58487;53.474;49.470;2023-08-31T11:10:23;24.19;53.56
70867;HTU21D;58487;53.474;49.470;2023-08-31T11:12:55;24.06;43.93
70867;HTU21D;58487;53.474;49.470;2023-08-31T11:15:26;24.12;41.50
70867;HTU21D;58487;53.474;49.470;2023-08-31T11:17:53;24.47;40.76
70867;HTU21D;58487;53.474;49.470;2023-08-31T11:20:21;24.20;42.13
70867;HTU21D;58487;53.474;49.470;2023-08-31T11:22:51;24.11;39.97
70867;HTU21D;58487;53.474;49.470;2023-08-31T11:25:21;24.33;35.56
70867;HTU21D;58487;53.474;49.470;2023-08-31T11:27:57;24.31;37.10
70867;HTU21D;58487;53.474;49.470;2023-08-31T11:30:25;24.12;45.07
70867;HTU21D;58487;53.474;49.470;2023-08-31T11:32:52;24.33;38.20
70867;HTU21D;58487;53.474;49.470;2023-08-31T11:35:22;24.35;46.52
70867;HTU21D;58487;53.474;49.470;2023-08-31T11:37:56;24.25;43.81
70867;HTU21D;58487;53.474;49.470;2023-08-31T11:40:22;24.28;46.16
70867;HTU21D;58487;53.474;49.470;2023-08-31T11:42:48;24.59;45.70
70867;HTU21D;58487;53.474;49.470;2023-08-31T11:45:16;24.80;36.36
70867;HTU21D;58487;53.474;49.470;2023-08-31T11:47:43;24.61;45.64
70867;HTU21D;58487;53.474;49.470;2023-08-31T11:50:11;24.87;43.22
70867;HTU21D;58487;53.474;49.470;2023-08-31T11:52:38;24.88;53.56
70867;HTU21D;58487;53.474;49.470;2023-08-31T11:55:10;24.78;44.95
70867;HTU21D;58487;53.474;49.470;2023-08-31T11:57:37;24.55;52.48
70867;HTU21D;58487;53.474;49.470;2023-08-31T12:00:04;24.84;48.87
70867;HTU21D;58487;53.474;49.470;2023-08-31T12:02:35;24.75;43.45
70867;HTU21D;58487;53.474;49.470;2023-08-31T12:05:01;24.80;48.76
70867;HTU21D;58487;53.474;49.470;2023-08-31T12:07:27;24.77;46.48
70867;HTU21D;58487;53.474;49.470;2023-08-31T12:09:53;24.94;41.29
70867;HTU21D;58487;53.474;49.470;2023-08-31T12:12:23;25.67;46.82
70867;HTU21D;58487;53.474;49.470;2023-08-31T12:14:52;25.69;43.52
70867;HTU21D;58487;53.474;49.470;2023-08-31T12:17:19;25.15;51.14
70867;HTU21D;58487;53.474;49.470;2023-08-31T12:19:45;25.16;46.74
70867;HTU21D;58487;53.474;49.470;2023-08-31T12:22:11;25.56;46.31
70867;HTU21D;58487;53.474;49.470;2023-08-31T12:24:41;25.27;45.96
70867;HTU21D;58487;53.474;49.470;2023-08-31T12:27:08;25.74;45.64
70867;HTU21D;58487;53.474;49.470;2023-08-31T12:29:34;25.73;52.53
70867;HTU21D;58487;53.474;49.470;2023-08-31T12:32:00;25.40;51.16
70867;HTU21D;58487;53.474;49.470;2023-08-31T12:34:26;25.81;42.57
70867;HTU21D;58487;53.474;49.470;2023-08-31T12:36:52;25.57;45.22
70867;HTU21D;58487;53.474;49.470;2023-08-31T12:39:18;25.67;45.79
70867;HTU21D;58487;53.474;49.470;2023-08-31T12:41:47;25.71;46.15
70867;HTU21D;58487;53.474;49.470;2023-08-31T12:44:14;25.62;47.76
70867;HTU21D;58487;53.474;49.470;2023-08-31T12:46:40;25.71;46.78
70867;HTU21D;58487;53.474;49.470;2023-08-31T12:49:06;26.16;48.07
70867;HTU21D;58487;53.474;49.470;2023-08-31T12:51:32;26.80;40.46
70867;HTU21D;58487;53.474;49.470;2023-08-31T12:53:58;26.64;46.96
70867;HTU21D;58487;53.474;49.470;2023-08-31T12:56:24;26.48;47.57
70867;HTU21D;58487;53.474;49.470;2023-08-31T12:58:52;26.18;43.12
70867;HTU21D;58487;53.474;49.470;2023-08-31T13:01:19;26.16;46.44
70867;HTU21D;58487;53.474;49.470;2023-08-31T13:03:46;26.26;47.89
70867;HTU21D;58487;53.474;49.470;2023-08-31T13:06:13;26.09;47.13
70867;HTU21D;58487;53.474;49.470;2023-08-31T13:08:40;27.05;48.44
70867;HTU21D;58487;53.474;49.470;2023-08-31T13:11:06;26.54;45.03
70867;HTU21D;58487;53.474;49.470;2023-08-31T13:13:33;26.17;43.63
70867;HTU21D;58487;53.474;49.470;2023-08-31T13:15:59;26.02;43.19
70867;HTU21D;58487;53.474;49.470;2023-08-31T13:18:25;26.52;44.08
70867;HTU21D;58487;53.474;49.470;2023-08-31T13:20:54;26.31;45.19
70867;HTU21D;58487;53.474;49.470;2023-08-31T13:23:21;26.53;42.77
70867;HTU21D;58487;53.474;49.470;2023-08-31T13:25:48;26.62;46.41
70867;HTU21D;58487;53.474;49.470;2023-08-31T13:28:16;26.38;44.21
70867;HTU21D;58487;53.474;49.470;2023-08-31T13:30:42;26.43;42.61
70867;HTU21D;58487;53.474;49.470;2023-08-31T13:33:08;26.76;47.28
70867;HTU21D;58487;53.474;49.470;2023-08-31T13:35:34;26.85;45.34
70867;HTU21D;58487;53.474;49.470;2023-08-31T13:38:01;27.10;41.59
70867;HTU21D;58487;53.474;49.470;2023-08-31T13:40:29;27.00;44.31
70867;HTU21D;58487;53.474;49.470;2023-08-31T13:42:58;27.40;46.68
70867;HTU21D;58487;53.474;49.470;2023-08-31T13:45:29;26.82;54.23
70867;HTU21D;58487;53.474;49.470;2023-08-31T13:47:59;26.65;43.93
70867;HTU21D;58487;53.474;49.470;2023-08-31T13:50:28;27.21;48.18
70867;HTU21D;58487;53.474;49.470;2023-08-31T13:52:55;26.75;46.32
70867;HTU21D;58487;53.474;49.470;2023-08-31T13:55:21;26.11;46.32
70867;HTU21D;58487;53.474;49.470;2023-08-31T13:57:49;26.68;52.64
70867;HTU21D;58487;53.474;49.470;2023-08-31T14:00:16;26.80;51.26
70867;HTU21D;58487;53.474;49.470;2023-08-31T14:02:43;27.10;50.82
70867;HTU21D;58487;53.474;49.470;2023-08-31T14:05:12;26.98;45.26
70867;HTU21D;58487;53.474;49.470;2023-08-31T14:07:38;26.35;49.13
70867;HTU21D;58487;53.474;49.470;2023-08-31T14:10:06;26.25;60.40
70867;HTU21D;58487;53.474;49.470;2023-08-31T14:12:35;26.50;54.72
70867;HTU21D;58487;53.474;49.470;2023-08-31T14:15:01;27.06;47.82
70867;HTU21D;58487;53.474;49.470;2023-08-31T14:17:30;26.83;49.02
70867;HTU21D;58487;53.474;49.470;2023-08-31T14:19:59;26.30;42.37
70867;HTU21D;58487;53.474;49.470;2023-08-31T14:22:26;26.34;44.48
70867;HTU21D;58487;53.474;49.470;2023-08-31T14:24:52;25.73;46.48
70867;HTU21D;58487;53.474;49.470;2023-08-31T14:27:19;25.32;59.34
70867;HTU21D;58487;53.474;49.470;2023-08-31T14:29:45;25.60;52.60
70867;HTU21D;58487;53.474;49.470;2023-08-31T14:32:11;25.40;50.59
70867;HTU21D;58487;53.474;49.470;2023-08-31T14:34:38;24.46;49.11
70867;HTU21D;58487;53.474;49.470;2023-08-31T14:37:06;24.18;47.90
70867;HTU21D;58487;53.474;49.470;2023-08-31T14:39:32;23.71;57.24
70867;HTU21D;58487;53.474;49.470;2023-08-31T14:41:59;23.55;50.32
70867;HTU21D;58487;53.474;49.470;2023-08-31T14:44:25;23.60;53.29
70867;HTU21D;58487;53.474;49.470;2023-08-31T14:46:52;23.46;51.75
70867;HTU21D;58487;53.474;49.470;2023-08-31T14:49:21;23.27;53.13
70867;HTU21D;58487;53.474;49.470;2023-08-31T14:51:48;22.93;51.72
70867;HTU21D;58487;53.474;49.470;2023-08-31T14:54:14;22.88;56.02
70867;HTU21D;58487;53.474;49.470;2023-08-31T14:56:40;22.71;55.07
70867;HTU21D;58487;53.474;49.470;2023-08-31T14:59:07;22.55;53.52
70867;HTU21D;58487;53.474;49.470;2023-08-31T15:01:33;22.48;60.20
70867;HTU21D;58487;53.474;49.470;2023-08-31T15:03:59;22.42;59.79
70867;HTU21D;58487;53.474;49.470;2023-08-31T15:06:25;22.31;56.09
70867;HTU21D;58487;53.474;49.470;2023-08-31T15:08:51;22.44;61.79
70867;HTU21D;58487;53.474;49.470;2023-08-31T15:11:18;22.33;59.95